Time;durP1;ratioP1;P1;durP2;ratioP2;P2;SDS_P1;SDS_P2;PMS_P1;PMS_P2;Temp;Humidity;BMP_temperature;BMP_pressure;BME280_temperature;BME280_humidity;BME280_pressure;Samples;Min_cycle;Max_cycle;Signal;HPM_P1;HPM_P2
2022/07/30 00:02:03;;;;;;;;;;;;;;;;;;5097975;28;19924;-74
2022/07/30 00:04:31;;;;;;;;;;;;;;;;;;5110168;28;20069;-74
2022/07/30 00:06:58;;;;;;;;;;;;;;;;;;5098980;28;19935;-74
2022/07/30 00:09:25;;;;;;;;;;;;;;;;;;5090645;28;20371;-74
2022/07/30 00:11:52;;;;;;;;;;;;;;;;;;5095520;28;19930;-74
2022/07/30 00:14:19;;;;;;;;;;;;;;;;;;5095921;28;19930;-73
2022/07/30 00:16:45;;;;;;;;;;;;;;;;;;5106214;28;20004;-74
2022/07/30 00:19:12;;;;;;;;;;;;;;;;;;5114417;28;20011;-73
2022/07/30 00:21:39;;;;;;;;;;;;;;;;;;5111873;28;19924;-73
2022/07/30 00:24:07;;;;;;;;;;;;;;;;;;5112334;28;20011;-74
2022/07/30 00:26:34;;;;;;;;;;;;;;;;;;5107505;28;19924;-72
2022/07/30 00:29:01;;;;;;;;;;;;;;;;;;5111144;28;19932;-72
2022/07/30 00:31:28;;;;;;;;;;;;;;;;;;5098770;28;19975;-69
2022/07/30 00:33:55;;;;;;;;;;;;;;;;;;5097846;28;19934;-70
2022/07/30 00:36:22;;;;;;;;;;;;;;;;;;5107642;28;20353;-74
2022/07/30 00:38:49;;;;;;;;;;;;;;;;;;5113725;28;19924;-75
2022/07/30 00:41:16;;;;;;;;;;;;;;;;;;5110262;28;20536;-74
2022/07/30 00:43:43;;;;;;;;;;;;;;;;;;5110095;28;20356;-74
2022/07/30 00:46:09;;;;;;;;;;;;;;;;;;5094538;28;20007;-74
2022/07/30 00:48:36;;;;;;;;;;;;;;;;;;5094321;28;19924;-74
2022/07/30 00:51:03;;;;;;;;;;;;;;;;;;5099641;28;19930;-75
2022/07/30 00:53:31;;;;;;;;;;;15.80;99.90;;;;;;5096677;28;19924;-74
2022/07/30 00:55:58;;;;;;;;;;;15.70;99.90;;;;;;5106946;28;20454;-74
2022/07/30 00:58:25;;;;;;;;;;;15.60;99.90;;;;;;5094276;28;19928;-73
2022/07/30 01:00:52;;;;;;;;;;;15.60;99.90;;;;;;5098687;28;20466;-74
2022/07/30 01:03:19;;;;;;;;;;;15.50;99.90;;;;;;5094604;28;19997;-74
2022/07/30 01:05:45;;;;;;;;;;;15.50;99.90;;;;;;5101446;28;20015;-74
2022/07/30 01:08:12;;;;;;;;;;;15.50;99.90;;;;;;5094147;28;19986;-74
2022/07/30 01:10:40;;;;;;;;;;;15.50;99.90;;;;;;5095914;28;20025;-73
2022/07/30 01:13:07;;;;;;;;;;;15.40;99.90;;;;;;5108207;28;20451;-74
2022/07/30 01:15:34;;;;;;;;;;;15.50;99.90;;;;;;5098199;28;20015;-73
2022/07/30 01:18:02;;;;;;;;;;;15.50;99.90;;;;;;5093060;28;19963;-73
2022/07/30 01:20:30;;;;;;;;;;;15.60;99.90;;;;;;5092096;28;19924;-74
2022/07/30 01:23:01;;;;;;;;;;;15.60;99.90;;;;;;5092920;28;20007;-72
2022/07/30 01:25:33;;;;;;;;;;;15.50;99.90;;;;;;5093807;28;19967;-75
2022/07/30 01:28:03;;;;;;;;;;;15.50;99.90;;;;;;5107126;28;19923;-75
2022/07/30 01:30:31;;;;;;;;;;;15.40;99.90;;;;;;5092216;28;20433;-74
2022/07/30 01:32:58;;;;;;;;;;;;;;;;;;5099094;28;20006;-74
2022/07/30 01:35:25;;;;;;;;;;;;;;;;;;5106568;28;19971;-74
2022/07/30 01:37:52;;;;;;;;;;;;;;;;;;5096394;28;19979;-74
2022/07/30 01:40:19;;;;;;;;;;;;;;;;;;5095536;28;19924;-74
2022/07/30 01:42:46;;;;;;;;;;;;;;;;;;5096089;28;19932;-74
2022/07/30 01:45:13;;;;;;;;;;;;;;;;;;5102154;28;19932;-75
2022/07/30 01:47:40;;;;;;;;;;;;;;;;;;5095235;28;19931;-75
2022/07/30 01:50:07;;;;;;;;;;;;;;;;;;5093515;28;20386;-75
2022/07/30 01:52:34;;;;;;;;;;;;;;;;;;5095165;28;20431;-75
2022/07/30 01:55:01;;;;;;;;;;;;;;;;;;5092911;28;20003;-75
2022/07/30 01:57:28;;;;;;;;;;;;;;;;;;5102926;28;20396;-75
2022/07/30 01:59:55;;;;;;;;;;;;;;;;;;5098993;28;19967;-74
2022/07/30 02:02:22;;;;;;;;;;;;;;;;;;5097301;28;20212;-76
2022/07/30 02:04:49;;;;;;;;;;;;;;;;;;5093546;28;19930;-75
2022/07/30 02:07:16;;;;;;;;;;;;;;;;;;5100138;28;19982;-76
2022/07/30 02:09:43;;;;;;;;;;;;;;;;;;5094444;28;19928;-75
2022/07/30 02:12:28;;;;;;;;;;;;;;;;;;5095043;28;19924;-75
2022/07/30 02:14:55;;;;;;;;;;;;;;;;;;5091659;28;20006;-75
2022/07/30 02:17:22;;;;;;;;;;;;;;;;;;5095011;28;19968;-76
2022/07/30 02:19:49;;;;;;;;;;;;;;;;;;5101566;28;19928;-74
2022/07/30 02:22:16;;;;;;;;;;;;;;;;;;5102384;28;19962;-74
2022/07/30 02:24:43;;;;;;;;;;;;;;;;;;5103516;28;20405;-74
2022/07/30 02:27:10;;;;;;;;;;;;;;;;;;5109290;28;20388;-75
2022/07/30 02:29:37;;;;;;;;;;;;;;;;;;5110918;28;19924;-74
2022/07/30 02:32:04;;;;;;;;;;;;;;;;;;5109574;28;20073;-75
2022/07/30 02:34:31;;;;;;;;;;;;;;;;;;5103321;28;19928;-75
2022/07/30 02:36:58;;;;;;;;;;;;;;;;;;5093117;28;20431;-75
2022/07/30 02:39:26;;;;;;;;;;;;;;;;;;5109965;28;19990;-75
2022/07/30 02:41:52;;;;;;;;;;;;;;;;;;5110798;28;20351;-75
2022/07/30 02:44:19;;;;;;;;;;;;;;;;;;5105329;28;19924;-77
2022/07/30 02:46:46;;;;;;;;;;;;;;;;;;5098364;28;19959;-76
2022/07/30 02:49:13;;;;;;;;;;;;;;;;;;5109680;28;20010;-77
2022/07/30 02:51:41;;;;;;;;;;;;;;;;;;5109377;28;20383;-77
2022/07/30 02:54:07;;;;;;;;;;;;;;;;;;5105126;28;19939;-75
2022/07/30 02:56:34;;;;;;;;;;;;;;;;;;5095719;28;19966;-76
2022/07/30 02:59:01;;;;;;;;;;;;;;;;;;5109395;28;20418;-75
2022/07/30 03:01:28;;;;;;;;;;;;;;;;;;5110091;28;19963;-75
2022/07/30 03:03:55;;;;;;;;;;;;;;;;;;5106824;28;19975;-75
2022/07/30 03:06:24;;;;;;;;;;;;;;;;;;5109157;28;19960;-75
2022/07/30 03:08:51;;;;;;;;;;;;;;;;;;5109092;28;19924;-76
2022/07/30 03:11:18;;;;;;;;;;;;;;;;;;5094554;28;19931;-76
2022/07/30 03:13:45;;;;;;;;;;;;;;;;;;5097356;28;19934;-77
2022/07/30 03:16:12;;;;;;;;;;;;;;;;;;5091800;28;20027;-76
2022/07/30 03:18:39;;;;;;;;;;;;;;;;;;5091760;28;19931;-76
2022/07/30 03:21:06;;;;;;;;;;;;;;;;;;5108681;28;20309;-75
2022/07/30 03:23:33;;;;;;;;;;;;;;;;;;5110914;28;20022;-77
2022/07/30 03:26:00;;;;;;;;;;;;;;;;;;5092363;28;19964;-76
2022/07/30 03:28:27;;;;;;;;;;;;;;;;;;5110489;28;19923;-74
2022/07/30 03:30:54;;;;;;;;;;;;;;;;;;5109390;28;20023;-74
2022/07/30 03:33:21;;;;;;;;;;;;;;;;;;5102432;28;19930;-75
2022/07/30 03:35:48;;;;;;;;;;;;;;;;;;5091805;28;19924;-75
2022/07/30 03:38:15;;;;;;;;;;;;;;;;;;5092088;28;20290;-75
2022/07/30 03:40:42;;;;;;;;;;;;;;;;;;5105610;28;19924;-75
2022/07/30 03:43:09;;;;;;;;;;;;;;;;;;5092260;28;20296;-75
2022/07/30 03:45:36;;;;;;;;;;;;;;;;;;5090900;28;20030;-76
2022/07/30 03:48:03;;;;;;;;;;;;;;;;;;5107087;28;19924;-75
2022/07/30 03:50:30;;;;;;;;;;;;;;;;;;5112611;28;20015;-74
2022/07/30 03:52:57;;;;;;;;;;;;;;;;;;5095998;28;20011;-74
2022/07/30 03:55:24;;;;;;;;;;;;;;;;;;5094737;28;19959;-75
2022/07/30 03:57:51;;;;;;;;;;;;;;;;;;5097714;28;19931;-74
2022/07/30 04:00:18;;;;;;;;;;;;;;;;;;5105243;28;19978;-75
2022/07/30 04:02:45;;;;;;;;;;;;;;;;;;5099675;28;20023;-74
2022/07/30 04:05:12;;;;;;;;;;;;;;;;;;5104341;28;20433;-75
2022/07/30 04:07:39;;;;;;;;;;;;;;;;;;5098988;28;20382;-75
2022/07/30 04:10:08;;;;;;;;;;;14.90;99.90;;;;;;5103319;28;20405;-76
2022/07/30 04:12:35;;;;;;;;;;;14.80;99.90;;;;;;5105851;28;20314;-76
2022/07/30 04:15:02;;;;;;;;;;;14.80;99.90;;;;;;5099928;28;20015;-75
2022/07/30 04:17:31;;;;;;;;;;;14.80;99.90;;;;;;5104784;28;19924;-76
2022/07/30 04:20:01;;;;;;;;;;;14.70;99.90;;;;;;5113411;28;19970;-76
2022/07/30 04:22:30;;;;;;;;;;;14.70;99.90;;;;;;5100470;28;20351;-76
2022/07/30 04:24:57;;;;;;;;;;;14.70;99.90;;;;;;5106597;28;19971;-74
2022/07/30 04:27:25;;;;;;;;;;;14.70;99.90;;;;;;5097159;28;20077;-74
2022/07/30 04:29:52;;;;;;;;;;;14.80;99.90;;;;;;5100689;28;19949;-74
2022/07/30 04:32:19;;;;;;;;;;;14.80;99.90;;;;;;5102548;28;20291;-74
2022/07/30 04:34:47;;;;;;;;;;;14.80;99.90;;;;;;5095771;28;19963;-74
2022/07/30 04:37:15;;;;;;;;;;;14.90;99.90;;;;;;5097533;28;19932;-74
2022/07/30 04:39:41;;;;;;;;;;;14.90;99.90;;;;;;5099114;28;19923;-74
2022/07/30 04:42:08;;;;;;;;;;;15.00;99.90;;;;;;5104230;28;20446;-73
2022/07/30 04:44:36;;;;;;;;;;;15.00;99.90;;;;;;5095250;28;20023;-73
2022/07/30 04:47:03;;;;;;;;;;;15.10;99.90;;;;;;5099298;28;19984;-74
2022/07/30 04:49:30;;;;;;;;;;;15.10;99.90;;;;;;5111592;28;19924;-73
2022/07/30 04:51:57;;;;;;;;;;;15.20;99.90;;;;;;5111167;28;20193;-73
2022/07/30 04:54:25;;;;;;;;;;;15.30;99.90;;;;;;5111201;28;20363;-73
2022/07/30 04:56:52;;;;;;;;;;;15.40;99.90;;;;;;5094068;28;20474;-73
2022/07/30 04:59:20;;;;;;;;;;;15.40;99.90;;;;;;5094629;28;19935;-73
2022/07/30 05:01:49;;;;;;;;;;;15.50;99.90;;;;;;5105764;28;19928;-74
2022/07/30 05:04:16;;;;;;;;;;;15.60;99.90;;;;;;5096565;28;19925;-74
2022/07/30 05:06:43;;;;;;;;;;;15.60;99.90;;;;;;5112776;28;20329;-74
2022/07/30 05:09:10;;;;;;;;;;;15.60;99.90;;;;;;5106495;28;19924;-73
2022/07/30 05:11:37;;;;;;;;;;;15.60;99.90;;;;;;5097875;28;20017;-72
2022/07/30 05:14:04;;;;;;;;;;;15.70;99.90;;;;;;5109326;28;20014;-73
2022/07/30 05:16:32;;;;;;;;;;;15.80;99.90;;;;;;5095850;28;20390;-73
2022/07/30 05:19:00;;;;;;;;;;;15.70;99.90;;;;;;5112002;28;19986;-73
2022/07/30 05:21:27;;;;;;;;;;;15.80;99.90;;;;;;5095408;28;19927;-72
2022/07/30 05:23:54;;;;;;;;;;;15.90;99.90;;;;;;5094223;28;19978;-73
2022/07/30 05:26:21;;;;;;;;;;;16.00;99.90;;;;;;5096082;28;19954;-73
2022/07/30 05:28:48;;;;;;;;;;;16.10;99.90;;;;;;5113140;28;19998;-72
2022/07/30 05:31:14;;;;;;;;;;;16.30;99.90;;;;;;5106867;28;19932;-73
2022/07/30 05:33:41;;;;;;;;;;;16.40;99.90;;;;;;5101123;28;19932;-73
2022/07/30 05:36:09;;;;;;;;;;;16.50;99.90;;;;;;5110216;28;20027;-72
2022/07/30 05:38:36;;;;;;;;;;;16.50;99.90;;;;;;5106627;28;19931;-73
2022/07/30 05:41:02;;;;;;;;;;;16.60;99.90;;;;;;5098253;28;20379;-74
2022/07/30 05:43:29;;;;;;;;;;;16.60;99.90;;;;;;5108113;28;19967;-73
2022/07/30 05:45:56;;;;;;;;;;;16.60;99.90;;;;;;5092489;28;19924;-73
2022/07/30 05:48:23;;;;;;;;;;;16.60;99.90;;;;;;5094482;28;19978;-73
2022/07/30 05:50:49;;;;;;;;;;;16.70;99.90;;;;;;5108102;28;19923;-73
2022/07/30 05:53:17;;;;;;;;;;;16.80;99.90;;;;;;5101685;28;19976;-74
2022/07/30 05:55:44;;;;;;;;;;;16.90;99.90;;;;;;5093110;28;19931;-73
2022/07/30 05:58:11;;;;;;;;;;;16.90;99.90;;;;;;5093965;28;20015;-74
2022/07/30 06:00:37;;;;;;;;;;;16.90;99.90;;;;;;5105725;28;19931;-73
2022/07/30 06:03:04;;;;;;;;;;;17.30;99.90;;;;;;5099378;28;20007;-73
2022/07/30 06:05:31;;;;;;;;;;;19.40;99.90;;;;;;5092982;28;19960;-73
2022/07/30 06:07:58;;;;;;;;;;;21.40;99.90;;;;;;5104156;28;20280;-73
2022/07/30 06:10:26;;;;;;;;;;;22.80;99.90;;;;;;5104894;28;19946;-73
2022/07/30 06:12:53;;;;;;;;;;;24.20;99.50;;;;;;5110889;28;19923;-73
2022/07/30 06:15:20;;;;;;;;;;;25.50;93.40;;;;;;5095246;28;19975;-73
2022/07/30 06:17:47;;;;;;;;;;;25.90;85.20;;;;;;5107289;28;20022;-74
2022/07/30 06:20:15;;;;;;;;;;;24.70;89.90;;;;;;5099474;28;19924;-74
2022/07/30 06:22:42;;;;;;;;;;;23.20;92.90;;;;;;5104281;28;19924;-74
2022/07/30 06:25:09;;;;;;;;;;;21.80;97.10;;;;;;5111177;28;20007;-74
2022/07/30 06:27:38;;;;;;;;;;;21.10;99.90;;;;;;5111006;28;20002;-73
2022/07/30 06:30:05;;;;;;;;;;;20.40;99.90;;;;;;5103962;28;19974;-73
2022/07/30 06:32:32;;;;;;;;;;;19.90;99.90;;;;;;5104634;28;20319;-74
2022/07/30 06:34:59;;;;;;;;;;;19.50;99.90;;;;;;5095049;28;19924;-73
2022/07/30 06:37:26;;;;;;;;;;;19.30;99.90;;;;;;5092826;28;20029;-73
2022/07/30 06:39:52;;;;;;;;;;;19.10;99.90;;;;;;5095896;28;19969;-73
2022/07/30 06:42:19;;;;;;;;;;;19.10;99.90;;;;;;5095819;28;20001;-73
2022/07/30 06:44:47;;;;;;;;;;;19.00;99.90;;;;;;5105820;28;19967;-72
2022/07/30 06:47:19;;;;;;;;;;;19.00;99.90;;;;;;5110635;28;19939;-74
2022/07/30 06:49:45;;;;;;;;;;;19.00;99.90;;;;;;5105724;28;19999;-73
2022/07/30 06:52:12;;;;;;;;;;;18.90;99.90;;;;;;5101389;28;20017;-73
2022/07/30 06:54:39;;;;;;;;;;;19.00;99.90;;;;;;5092233;28;20402;-74
2022/07/30 06:57:06;;;;;;;;;;;19.10;99.90;;;;;;5100086;28;20018;-73
2022/07/30 06:59:32;;;;;;;;;;;19.90;99.90;;;;;;5108697;28;19970;-73
2022/07/30 07:02:00;;;;;;;;;;;22.30;99.90;;;;;;5098019;28;19932;-72
2022/07/30 07:04:27;;;;;;;;;;;24.40;99.90;;;;;;5093506;28;19928;-72
2022/07/30 07:06:54;;;;;;;;;;;;;;;;;;5101643;28;19928;-73
2022/07/30 07:09:21;;;;;;;;;;;;;;;;;;5110893;28;19924;-75
2022/07/30 07:11:48;;;;;;;;;;;26.60;99.90;;;;;;5104547;28;20039;-73
2022/07/30 07:14:14;;;;;;;;;;;27.60;97.70;;;;;;5107913;28;20023;-73
2022/07/30 07:16:41;;;;;;;;;;;29.20;92.90;;;;;;5106473;28;20458;-73
2022/07/30 07:19:09;;;;;;;;;;;29.10;55.80;;;;;;5092759;28;20508;-73
2022/07/30 07:21:36;;;;;;;;;;;26.90;58.80;;;;;;5096176;28;19924;-75
2022/07/30 07:24:02;;;;;;;;;;;27.50;61.90;;;;;;5106047;28;20310;-73
2022/07/30 07:26:31;;;;;;;;;;;28.70;56.80;;;;;;5112930;28;19928;-74
2022/07/30 07:28:57;;;;;;;;;;;28.80;56.40;;;;;;5104876;28;19924;-76
2022/07/30 07:31:24;;;;;;;;;;;29.50;52.30;;;;;;5096977;27;20098;-70
2022/07/30 07:33:53;;;;;;;;;;;29.60;47.00;;;;;;5100537;28;20015;-75
2022/07/30 07:36:21;;;;;;;;;;;30.30;44.30;;;;;;5097656;28;20394;-75
2022/07/30 07:38:48;;;;;;;;;;;29.80;41.80;;;;;;5107393;28;20322;-74
2022/07/30 07:41:15;;;;;;;;;;;29.50;49.80;;;;;;5100773;28;19932;-74
2022/07/30 07:43:41;;;;;;;;;;;29.80;48.50;;;;;;5094640;28;20014;-75
2022/07/30 07:46:08;;;;;;;;;;;30.50;47.40;;;;;;5095137;28;19971;-74
2022/07/30 07:48:35;;;;;;;;;;;29.90;35.10;;;;;;5115610;28;19924;-75
2022/07/30 07:51:02;;;;;;;;;;;27.60;41.40;;;;;;5108220;28;19924;-75
2022/07/30 07:53:30;;;;;;;;;;;29.20;38.30;;;;;;5106746;28;19994;-75
2022/07/30 07:55:57;;;;;;;;;;;29.90;35.80;;;;;;5101005;27;20022;-75
2022/07/30 07:58:24;;;;;;;;;;;30.30;34.50;;;;;;5094883;28;20021;-74
2022/07/30 08:00:50;;;;;;;;;;;30.40;33.70;;;;;;5098826;27;19975;-74
2022/07/30 08:03:17;;;;;;;;;;;30.40;32.70;;;;;;5101689;28;19974;-74
2022/07/30 08:05:44;;;;;;;;;;;29.90;35.00;;;;;;5107987;28;22358;-75
2022/07/30 08:08:11;;;;;;;;;;;31.00;30.90;;;;;;5099636;28;19967;-75
2022/07/30 08:10:38;;;;;;;;;;;;;;;;;;5103042;28;19931;-75
2022/07/30 08:13:06;;;;;;;;;;;30.50;27.80;;;;;;5100479;28;19930;-75
2022/07/30 08:15:33;;;;;;;;;;;28.30;32.60;;;;;;5101340;28;20406;-75
2022/07/30 08:17:59;;;;;;;;;;;30.30;31.00;;;;;;5102522;28;19974;-75
2022/07/30 08:20:26;;;;;;;;;;;31.70;26.70;;;;;;5102584;28;19927;-75
2022/07/30 08:22:53;;;;;;;;;;;29.30;23.50;;;;;;5099598;28;20286;-75
2022/07/30 08:25:19;;;;;;;;;;;28.30;25.90;;;;;;5094517;28;19924;-77
2022/07/30 08:27:46;;;;;;;;;;;28.00;25.30;;;;;;5100832;28;19931;-78
2022/07/30 08:30:14;;;;;;;;;;;29.80;24.10;;;;;;5099417;28;20031;-77
2022/07/30 08:32:41;;;;;;;;;;;27.50;26.10;;;;;;5097028;28;19938;-78
2022/07/30 08:35:08;;;;;;;;;;;26.80;30.20;;;;;;5098435;28;19962;-78
2022/07/30 08:37:34;;;;;;;;;;;27.10;29.60;;;;;;5100453;28;19924;-75
2022/07/30 08:40:02;;;;;;;;;;;26.80;30.30;;;;;;5101400;28;19931;-76
2022/07/30 08:42:29;;;;;;;;;;;28.00;27.70;;;;;;5103155;28;20363;-74
2022/07/30 08:44:56;;;;;;;;;;;27.90;28.30;;;;;;5099798;28;20383;-75
2022/07/30 08:47:26;;;;;;;;;;;29.10;28.20;;;;;;5102574;28;20390;-75
2022/07/30 08:49:54;;;;;;;;;;;31.60;23.30;;;;;;5096400;28;19972;-74
2022/07/30 08:52:21;;;;;;;;;;;32.50;22.30;;;;;;5106569;28;19974;-75
2022/07/30 08:54:48;;;;;;;;;;;33.20;20.00;;;;;;5098562;28;19923;-76
2022/07/30 08:57:14;;;;;;;;;;;32.90;19.10;;;;;;5101160;28;20429;-76
2022/07/30 08:59:41;;;;;;;;;;;33.50;17.70;;;;;;5094372;28;19936;-75
2022/07/30 09:02:08;;;;;;;;;;;33.70;16.60;;;;;;5099738;28;20023;-74
2022/07/30 09:04:36;;;;;;;;;;;33.70;16.30;;;;;;5102240;28;19924;-75
2022/07/30 09:07:03;;;;;;;;;;;33.20;16.10;;;;;;5103365;28;19924;-75
2022/07/30 09:09:30;;;;;;;;;;;33.20;15.10;;;;;;5099580;28;19979;-74
2022/07/30 09:11:56;;;;;;;;;;;32.90;14.40;;;;;;5110586;28;19931;-74
2022/07/30 09:14:23;;;;;;;;;;;32.80;14.60;;;;;;5102727;28;20440;-74
2022/07/30 09:16:55;;;;;;;;;;;33.50;13.40;;;;;;5105324;28;19931;-74
2022/07/30 09:19:22;;;;;;;;;;;33.60;12.90;;;;;;5097791;28;20014;-74
2022/07/30 09:21:57;;;;;;;;;;;33.90;12.60;;;;;;5108706;28;19967;-74
2022/07/30 09:24:24;;;;;;;;;;;33.50;12.60;;;;;;5100670;28;19974;-73
2022/07/30 09:26:55;;;;;;;;;;;32.50;12.70;;;;;;5098922;28;19923;-74
2022/07/30 09:29:22;;;;;;;;;;;31.80;12.00;;;;;;5099367;28;20291;-74
2022/07/30 09:31:55;;;;;;;;;;;31.00;13.70;;;;;;5106186;28;20409;-74
2022/07/30 09:34:26;;;;;;;;;;;30.50;14.30;;;;;;5101438;28;19924;-74
2022/07/30 09:36:52;;;;;;;;;;;31.30;13.90;;;;;;5100965;28;19928;-74
2022/07/30 09:39:29;;;;;;;;;;;32.10;13.10;;;;;;5099566;28;20028;-75
2022/07/30 09:41:57;;;;;;;;;;;32.40;10.80;;;;;;5098542;28;19946;-76
2022/07/30 09:44:24;;;;;;;;;;;30.80;12.60;;;;;;5104541;28;20333;-72
2022/07/30 09:46:51;;;;;;;;;;;30.10;14.00;;;;;;5107250;28;19959;-74
2022/07/30 09:49:18;;;;;;;;;;;29.40;14.50;;;;;;5099262;28;19935;-74
2022/07/30 09:51:45;;;;;;;;;;;29.40;14.50;;;;;;5097701;28;21525;-74
2022/07/30 09:54:11;;;;;;;;;;;28.60;14.90;;;;;;5097544;28;20011;-75
2022/07/30 09:56:39;;;;;;;;;;;27.50;18.40;;;;;;5096356;28;19930;-73
2022/07/30 09:59:06;;;;;;;;;;;27.90;18.20;;;;;;5099994;28;19935;-74
2022/07/30 10:01:48;;;;;;;;;;;27.90;19.00;;;;;;5100157;28;19928;-73
2022/07/30 10:04:23;;;;;;;;;;;29.20;18.40;;;;;;5099351;28;20003;-74
2022/07/30 10:06:50;;;;;;;;;;;31.00;15.90;;;;;;5100617;28;19928;-73
2022/07/30 10:09:27;;;;;;;;;;;31.00;14.30;;;;;;5104396;28;19924;-74
2022/07/30 10:11:56;;;;;;;;;;;29.60;15.80;;;;;;5103506;28;19928;-73
2022/07/30 10:14:23;;;;;;;;;;;29.40;16.20;;;;;;5092168;28;19924;-74
2022/07/30 10:16:50;;;;;;;;;;;28.10;17.20;;;;;;5098128;28;20010;-73
2022/07/30 10:19:16;;;;;;;;;;;27.90;18.60;;;;;;5092160;28;19959;-74
2022/07/30 10:21:44;;;;;;;;;;;27.70;18.90;;;;;;5091349;28;22218;-73
2022/07/30 10:24:11;;;;;;;;;;;28.10;18.70;;;;;;5102789;28;20189;-73
2022/07/30 10:26:38;;;;;;;;;;;28.20;18.70;;;;;;5094335;28;20499;-73
2022/07/30 10:29:07;;;;;;;;;;;28.00;19.20;;;;;;5094268;28;20019;-73
2022/07/30 10:31:34;;;;;;;;;;;27.60;20.10;;;;;;5104220;28;19982;-73
2022/07/30 10:34:01;;;;;;;;;;;27.90;20.00;;;;;;5103202;28;19968;-73
2022/07/30 10:36:28;;;;;;;;;;;27.80;48.70;;;;;;5106960;28;20019;-73
2022/07/30 10:38:56;;;;;;;;;;;28.10;48.60;;;;;;5102222;28;20011;-74
2022/07/30 10:41:29;;;;;;;;;;;28.60;48.20;;;;;;5102805;28;19924;-73
2022/07/30 10:44:06;;;;;;;;;;;29.10;35.90;;;;;;5096253;28;19931;-73
2022/07/30 10:46:43;;;;;;;;;;;28.90;38.60;;;;;;5095913;28;20054;-74
2022/07/30 10:49:11;;;;;;;;;;;29.20;37.80;;;;;;5103523;28;19963;-74
2022/07/30 10:51:44;;;;;;;;;;;29.20;37.80;;;;;;5107241;28;19924;-74
2022/07/30 10:54:25;;;;;;;;;;;28.90;38.60;;;;;;5100326;28;19975;-74
2022/07/30 10:57:03;;;;;;;;;;;29.00;38.50;;;;;;5098879;28;20426;-73
2022/07/30 10:59:30;;;;;;;;;;;28.80;17.40;;;;;;5104793;28;19938;-73
2022/07/30 11:02:10;;;;;;;;;;;28.70;18.10;;;;;;5101730;28;19969;-73
2022/07/30 11:04:37;;;;;;;;;;;28.60;17.60;;;;;;5102614;28;20450;-74
2022/07/30 11:07:26;;;;;;;;;;;27.80;18.90;;;;;;5105619;28;20323;-74
2022/07/30 11:09:53;;;;;;;;;;;27.80;18.40;;;;;;5108807;28;19930;-72
2022/07/30 11:12:50;;;;;;;;;;;27.70;18.30;;;;;;5101795;28;19982;-74
2022/07/30 11:15:17;;;;;;;;;;;27.70;18.10;;;;;;5098753;28;20013;-73
2022/07/30 11:18:01;;;;;;;;;;;27.90;18.70;;;;;;5107976;28;20045;-75
2022/07/30 11:20:29;;;;;;;;;;;28.00;18.70;;;;;;5105202;28;20007;-73
2022/07/30 11:23:08;;;;;;;;;;;28.10;18.30;;;;;;5092102;28;19930;-73
2022/07/30 11:25:42;;;;;;;;;;;28.20;18.10;;;;;;5099232;28;19927;-74
2022/07/30 11:28:28;;;;;;;;;;;28.30;18.40;;;;;;5101681;28;20016;-75
2022/07/30 11:30:55;;;;;;;;;;;28.10;18.50;;;;;;5094007;28;20007;-73
2022/07/30 11:33:26;;;;;;;;;;;28.60;19.00;;;;;;5100765;28;20412;-75
2022/07/30 11:36:06;;;;;;;;;;;28.90;17.80;;;;;;5102930;28;20356;-74
2022/07/30 11:38:47;;;;;;;;;;;28.80;17.50;;;;;;5096219;28;19924;-74
2022/07/30 11:41:14;;;;;;;;;;;28.60;17.30;;;;;;5094827;28;19971;-74
2022/07/30 11:43:41;;;;;;;;;;;28.30;17.30;;;;;;5097246;28;19924;-72
2022/07/30 11:46:08;;;;;;;;;;;28.50;17.50;;;;;;5095607;28;20430;-71
2022/07/30 11:48:37;;;;;;;;;;;28.90;16.70;;;;;;5095674;28;20387;-71
2022/07/30 11:51:04;;;;;;;;;;;29.10;16.40;;;;;;5097690;28;20062;-71
2022/07/30 11:53:31;;;;;;;;;;;28.90;16.40;;;;;;5093659;28;19959;-72
2022/07/30 11:55:58;;;;;;;;;;;28.90;15.70;;;;;;5099746;28;19938;-72
2022/07/30 11:58:26;;;;;;;;;;;28.60;16.20;;;;;;5108372;28;19924;-73
2022/07/30 12:00:53;;;;;;;;;;;28.10;17.20;;;;;;5108720;28;20367;-72
2022/07/30 12:03:21;;;;;;;;;;;28.00;17.70;;;;;;5092817;28;19930;-76
2022/07/30 12:05:50;;;;;;;;;;;27.90;17.40;;;;;;5094574;28;20008;-75
2022/07/30 12:08:17;;;;;;;;;;;27.70;18.40;;;;;;5103607;28;20010;-75
2022/07/30 12:10:44;;;;;;;;;;;27.90;18.50;;;;;;5099726;28;20439;-73
2022/07/30 12:13:12;;;;;;;;;;;27.80;18.70;;;;;;5104808;28;20393;-74
2022/07/30 12:15:39;;;;;;;;;;;27.80;17.90;;;;;;5106960;28;19978;-75
2022/07/30 12:18:06;;;;;;;;;;;27.60;18.20;;;;;;5094743;28;20383;-75
2022/07/30 12:20:33;;;;;;;;;;;27.80;18.10;;;;;;5102152;28;19975;-74
2022/07/30 12:23:02;;;;;;;;;;;27.80;18.40;;;;;;5111508;28;19950;-76
2022/07/30 12:25:29;;;;;;;;;;;28.10;17.60;;;;;;5111930;28;19928;-74
2022/07/30 12:27:56;;;;;;;;;;;28.30;17.50;;;;;;5102958;28;20350;-74
2022/07/30 12:30:23;;;;;;;;;;;28.60;16.80;;;;;;5110453;28;19924;-74
2022/07/30 12:32:50;;;;;;;;;;;28.70;17.00;;;;;;5110114;28;19924;-75
2022/07/30 12:35:17;;;;;;;;;;;28.40;16.90;;;;;;5101558;28;19931;-75
2022/07/30 12:38:01;;;;;;;;;;;28.20;18.00;;;;;;5094526;28;20371;-74
2022/07/30 12:40:29;;;;;;;;;;;28.20;17.60;;;;;;5104566;28;19992;-72
2022/07/30 12:42:56;;;;;;;;;;;28.00;17.90;;;;;;5107936;28;20375;-75
2022/07/30 12:45:26;;;;;;;;;;;28.40;17.30;;;;;;5106923;28;20058;-76
2022/07/30 12:47:52;;;;;;;;;;;28.70;16.70;;;;;;5101156;28;19962;-75
2022/07/30 12:50:19;;;;;;;;;;;28.70;14.90;;;;;;5106017;28;20450;-74
2022/07/30 12:52:48;;;;;;;;;;;28.30;15.40;;;;;;5112854;28;19930;-75
2022/07/30 12:55:15;;;;;;;;;;;28.10;15.30;;;;;;5109979;28;20034;-74
2022/07/30 12:57:59;;;;;;;;;;;28.10;15.70;;;;;;5105725;28;19942;-75
2022/07/30 13:00:27;;;;;;;;;;;28.20;15.80;;;;;;5099449;28;19991;-77
2022/07/30 13:02:54;;;;;;;;;;;27.80;17.50;;;;;;5105671;28;19989;-75
2022/07/30 13:05:21;;;;;;;;;;;27.70;18.30;;;;;;5107235;28;19971;-75
2022/07/30 13:07:55;;;;;;;;;;;27.90;18.50;;;;;;5106008;28;20016;-74
2022/07/30 13:10:21;;;;;;;;;;;27.90;18.00;;;;;;5104128;28;19928;-74
2022/07/30 13:12:48;;;;;;;;;;;27.80;18.70;;;;;;5099069;28;20390;-74
2022/07/30 13:15:18;;;;;;;;;;;27.90;18.60;;;;;;5108479;28;20303;-73
2022/07/30 13:17:45;;;;;;;;;;;28.10;18.20;;;;;;5107211;28;19967;-74
2022/07/30 13:20:13;;;;;;;;;;;28.00;17.80;;;;;;5102588;28;20023;-74
2022/07/30 13:22:39;;;;;;;;;;;28.10;17.80;;;;;;5105810;28;20011;-73
2022/07/30 13:25:07;;;;;;;;;;;28.20;17.40;;;;;;5107164;28;19924;-73
2022/07/30 13:27:33;;;;;;;;;;;28.20;17.40;;;;;;5100522;28;20341;-74
2022/07/30 13:30:00;;;;;;;;;;;28.30;17.40;;;;;;5105529;28;19924;-73
2022/07/30 13:32:28;;;;;;;;;;;28.40;16.90;;;;;;5095793;28;20019;-73
2022/07/30 13:34:55;;;;;;;;;;;28.60;16.30;;;;;;5103343;28;19974;-74
2022/07/30 13:37:21;;;;;;;;;;;28.20;15.90;;;;;;5108329;28;19927;-74
2022/07/30 13:39:48;;;;;;;;;;;28.10;16.40;;;;;;5110414;28;20010;-73
2022/07/30 13:42:15;;;;;;;;;;;28.20;16.10;;;;;;5096153;28;20375;-74
2022/07/30 13:44:42;;;;;;;;;;;28.30;16.60;;;;;;5096493;28;20015;-73
2022/07/30 13:47:08;;;;;;;;;;;28.30;17.10;;;;;;5096719;28;19991;-74
2022/07/30 13:49:42;;;;;;;;;;;28.30;16.20;;;;;;5100479;28;19932;-74
2022/07/30 13:52:09;;;;;;;;;;;28.50;16.00;;;;;;5099929;28;20010;-74
2022/07/30 13:54:36;;;;;;;;;;;28.70;16.10;;;;;;5105783;28;19923;-75
2022/07/30 13:57:03;;;;;;;;;;;28.80;16.30;;;;;;5097077;28;19999;-75
2022/07/30 13:59:29;;;;;;;;;;;29.20;16.30;;;;;;5106143;28;19924;-72
2022/07/30 14:01:56;;;;;;;;;;;29.50;15.50;;;;;;5105491;28;19924;-74
2022/07/30 14:04:23;;;;;;;;;;;29.30;15.00;;;;;;5100001;28;20302;-74
2022/07/30 14:06:51;;;;;;;;;;;29.10;15.50;;;;;;5101187;27;20015;-73
2022/07/30 14:09:18;;;;;;;;;;;29.20;15.00;;;;;;5101678;28;19976;-74
2022/07/30 14:11:44;;;;;;;;;;;29.10;15.70;;;;;;5096257;28;20012;-74
2022/07/30 14:14:11;;;;;;;;;;;29.20;15.50;;;;;;5108298;28;19975;-73
2022/07/30 14:16:38;;;;;;;;;;;29.20;15.80;;;;;;5100730;28;20010;-73
2022/07/30 14:19:05;;;;;;;;;;;29.00;15.30;;;;;;5095551;28;20014;-73
2022/07/30 14:21:31;;;;;;;;;;;28.40;15.10;;;;;;5106088;27;20463;-73
2022/07/30 14:23:59;;;;;;;;;;;28.40;15.80;;;;;;5095978;28;20039;-74
2022/07/30 14:26:26;;;;;;;;;;;28.60;15.60;;;;;;5111069;28;19958;-76
2022/07/30 14:28:53;;;;;;;;;;;28.70;14.80;;;;;;5107942;28;19924;-76
2022/07/30 14:31:19;;;;;;;;;;;28.60;14.90;;;;;;5100311;28;19923;-75
2022/07/30 14:33:46;;;;;;;;;;;28.50;14.10;;;;;;5102811;28;20500;-74
2022/07/30 14:36:13;;;;;;;;;;;28.60;14.10;;;;;;5108257;28;19966;-74
2022/07/30 14:38:40;;;;;;;;;;;28.80;13.90;;;;;;5110533;28;19923;-75
2022/07/30 14:41:08;;;;;;;;;;;29.00;13.40;;;;;;5092230;28;19978;-75
2022/07/30 14:43:35;;;;;;;;;;;29.00;13.30;;;;;;5104506;28;20011;-75
2022/07/30 14:46:02;;;;;;;;;;;29.00;13.20;;;;;;5097874;28;20008;-75
2022/07/30 14:48:28;;;;;;;;;;;28.90;13.20;;;;;;5099801;28;20306;-74
2022/07/30 14:50:56;;;;;;;;;;;29.00;13.50;;;;;;5102501;28;19932;-75
2022/07/30 14:53:22;;;;;;;;;;;29.20;12.90;;;;;;5103078;28;19971;-74